Time;durP1;ratioP1;P1;durP2;ratioP2;P2;SDS_P1;SDS_P2;PMS_P1;PMS_P2;Temp;Humidity;BMP_temperature;BMP_pressure;BME280_temperature;BME280_humidity;BME280_pressure;Samples;Min_cycle;Max_cycle;Signal;HPM_P1;HPM_P2
2023/05/01 00:00:31;;;;;;;31.00;17.63;;;;;;;4.55;100.00;98672.47;2556999;29;20055;-89
2023/05/01 00:02:02;;;;;;;33.83;17.42;;;;;;;4.62;100.00;98677.66;2558368;28;20051;-89
2023/05/01 00:03:18;;;;;;;33.72;17.92;;;;;;;4.62;100.00;98671.56;2557510;28;20059;-91
2023/05/01 00:04:34;;;;;;;38.05;18.30;;;;;;;4.60;100.00;98678.50;2558142;29;20046;-89
2023/05/01 00:05:49;;;;;;;31.83;17.67;;;;;;;4.68;100.00;98678.50;2557796;29;20055;-90
2023/05/01 00:07:05;;;;;;;29.08;17.02;;;;;;;4.37;100.00;98676.75;2558094;29;20059;-89
2023/05/01 00:08:21;;;;;;;32.17;17.98;;;;;;;4.63;100.00;98666.41;2557725;28;20524;-89
2023/05/01 00:09:36;;;;;;;30.38;16.63;;;;;;;4.42;100.00;98668.97;2558402;29;20051;-90
2023/05/01 00:10:51;;;;;;;32.60;17.45;;;;;;;4.44;100.00;98664.66;2557278;28;20572;-89
2023/05/01 00:12:07;;;;;;;26.58;15.65;;;;;;;4.48;100.00;98664.66;2557835;28;20418;-89
2023/05/01 00:13:23;;;;;;;29.30;16.13;;;;;;;4.73;100.00;98664.66;2557878;29;20461;-90
2023/05/01 00:14:40;;;;;;;30.45;16.70;;;;;;;4.75;100.00;98662.94;2557625;29;20059;-89
2023/05/01 00:15:55;;;;;;;30.67;16.30;;;;;;;4.88;100.00;98663.75;2558341;29;20056;-89
2023/05/01 00:17:11;;;;;;;27.17;14.68;;;;;;;4.71;100.00;98657.75;2557805;28;20090;-90
2023/05/01 00:18:29;;;;;;;29.80;16.70;;;;;;;4.65;100.00;98659.47;2558493;29;20138;-90
2023/05/01 00:19:44;;;;;;;30.60;17.27;;;;;;;4.73;100.00;98656.88;2557270;28;20055;-90
2023/05/01 00:21:00;;;;;;;30.38;17.75;;;;;;;4.87;100.00;98651.66;2558223;28;20086;-90
2023/05/01 00:22:16;;;;;;;34.80;19.80;;;;;;;4.76;100.00;98651.69;2556899;29;20055;-92
2023/05/01 00:23:31;;;;;;;33.42;20.00;;;;;;;4.90;100.00;98656.88;2557711;29;20059;-91
2023/05/01 00:24:48;;;;;;;33.70;19.65;;;;;;;4.83;100.00;98652.53;2557304;29;20059;-91
2023/05/01 00:26:04;;;;;;;38.00;20.30;;;;;;;4.84;100.00;98648.22;2558446;29;20087;-90
2023/05/01 00:27:20;;;;;;;34.78;20.67;;;;;;;4.90;100.00;98650.81;2557254;29;20056;-89
2023/05/01 00:28:35;;;;;;;37.92;21.33;;;;;;;4.94;100.00;98648.22;2558472;28;20056;-89
2023/05/01 00:29:51;;;;;;;38.80;22.13;;;;;;;4.93;100.00;98645.59;2557595;28;20087;-90
2023/05/01 00:31:06;;;;;;;39.25;22.65;;;;;;;4.98;100.00;98643.88;2558428;28;20054;-90
2023/05/01 00:32:22;;;;;;;38.55;21.77;;;;;;;4.89;100.00;98643.88;2557398;29;20586;-89
2023/05/01 00:33:37;;;;;;;42.13;21.95;;;;;;;4.89;100.00;98642.16;2560342;28;20106;-90
2023/05/01 00:34:55;;;;;;;38.05;21.33;;;;;;;4.87;100.00;98643.88;2560070;29;20090;-92
2023/05/01 00:36:11;;;;;;;36.15;21.08;;;;;;;4.87;100.00;98637.84;2558320;29;20055;-90
2023/05/01 00:37:26;;;;;;;36.53;21.75;;;;;;;4.90;100.00;98632.63;2557670;28;20051;-90
2023/05/01 00:38:42;;;;;;;36.85;21.08;;;;;;;4.74;100.00;98631.78;2558268;29;20059;-89
2023/05/01 00:39:57;;;;;;;38.03;19.95;;;;;;;4.85;100.00;98629.22;2557792;28;20447;-90
2023/05/01 00:41:13;;;;;;;34.88;19.52;;;;;;;4.87;100.00;98625.72;2558052;28;20071;-89
2023/05/01 00:42:33;;;;;;;34.05;19.40;;;;;;;4.74;100.00;98636.97;2557472;29;20055;-89
2023/05/01 00:43:49;;;;;;;33.28;19.70;;;;;;;4.81;100.00;98636.13;2558552;29;20059;-88
2023/05/01 00:45:06;;;;;;;35.88;19.80;;;;;;;4.62;100.00;98632.69;2556680;29;20059;-90
2023/05/01 00:46:21;;;;;;;35.15;19.30;;;;;;;4.70;100.00;98627.47;2557635;29;20494;-90
2023/05/01 00:47:37;;;;;;;31.88;19.98;;;;;;;4.53;100.00;98625.78;2557821;28;20138;-90
2023/05/01 00:48:53;;;;;;;39.42;21.00;;;;;;;4.62;100.00;98625.78;2557370;28;20058;-89
2023/05/01 00:50:09;;;;;;;30.92;18.77;;;;;;;4.66;100.00;98627.50;2558530;28;20079;-89
2023/05/01 00:51:28;;;;;;;34.45;19.67;;;;;;;4.62;100.00;98632.69;2557159;29;20422;-90
2023/05/01 00:52:44;;;;;;;36.60;20.48;;;;;;;4.71;100.00;98621.44;2558474;28;20126;-90
2023/05/01 00:54:00;;;;;;;33.65;19.83;;;;;;;4.80;100.00;98617.09;2557182;29;20070;-89
2023/05/01 00:55:16;;;;;;;32.17;19.52;;;;;;;4.59;100.00;98622.31;2558397;28;20157;-90
2023/05/01 00:56:31;;;;;;;32.80;19.30;;;;;;;4.46;100.00;98616.25;2563722;28;20082;-90
2023/05/01 00:57:47;;;;;;;35.15;20.35;;;;;;;4.27;100.00;98615.41;2567790;28;20051;-90
2023/05/01 00:59:04;;;;;;;36.05;19.17;;;;;;;4.21;100.00;98608.50;2567245;28;20793;-90
2023/05/01 01:00:22;;;;;;;31.98;18.83;;;;;;;4.25;100.00;98612.81;2567950;28;20492;-88
2023/05/01 01:01:37;;;;;;;33.42;19.75;;;;;;;4.35;100.00;98609.38;2567409;28;20059;-91
2023/05/01 01:02:53;;;;;;;31.95;18.65;;;;;;;4.40;100.00;98606.78;2567581;28;20598;-89
2023/05/01 01:04:08;;;;;;;27.50;17.42;;;;;;;4.46;100.00;98611.06;2567329;28;20050;-89
2023/05/01 01:05:28;;;;;;;31.92;17.90;;;;;;;4.45;100.00;98609.34;2569794;28;20074;-89
2023/05/01 01:07:10;;;;;;;29.35;17.42;;;;;;;4.45;100.00;98607.63;2568864;28;20509;-90
2023/05/01 01:08:31;;;;;;;26.93;16.30;;;;;;;4.50;100.00;98610.22;2569610;28;20402;-89
2023/05/01 01:09:54;;;;;;;31.17;17.75;;;;;;;4.48;100.00;98611.97;2569183;28;20464;-90
2023/05/01 01:11:20;;;;;;;32.90;18.10;;;;;;;4.45;100.00;98609.34;2569139;28;20051;-89
2023/05/01 01:12:59;;;;;;;29.13;17.42;;;;;;;4.54;100.00;98606.75;2569493;28;20093;-89
2023/05/01 01:14:18;;;;;;;30.63;17.10;;;;;;;4.56;100.00;98609.38;2568777;28;20501;-89
2023/05/01 01:15:44;;;;;;;26.83;17.17;;;;;;;4.49;100.00;98613.69;2569623;28;20077;-90
2023/05/01 01:17:10;;;;;;;30.05;17.38;;;;;;;4.58;100.00;98605.88;2569121;28;20062;-90
2023/05/01 01:18:40;;;;;;;32.65;17.35;;;;;;;4.46;100.00;98603.28;2569547;28;20117;-89
2023/05/01 01:20:11;;;;;;;29.48;17.15;;;;;;;4.37;100.00;98606.75;2568534;28;20175;-89
2023/05/01 01:21:40;;;;;;;29.63;17.52;;;;;;;4.32;100.00;98604.16;2569096;28;20063;-89
2023/05/01 01:23:14;;;;;;;27.42;17.23;;;;;;;4.38;100.00;98604.19;2568800;28;20055;-88
2023/05/01 01:24:57;;;;;;;28.52;17.08;;;;;;;4.45;100.00;98607.63;2568558;28;20065;-89
2023/05/01 01:26:49;;;;;;;29.63;17.10;;;;;;;4.21;100.00;98609.34;2570246;28;20062;-90
2023/05/01 01:28:13;;;;;;;34.22;17.48;;;;;;;4.16;100.00;98610.22;2557631;29;20127;-89
2023/05/01 01:29:50;;;;;;;32.53;17.40;;;;;;;4.18;100.00;98608.47;2566837;28;20075;-91
2023/05/01 01:31:13;;;;;;;28.67;17.52;;;;;;;4.28;100.00;98605.03;2569406;28;20062;-89
2023/05/01 01:33:09;;;;;;;29.98;17.63;;;;;;;4.34;100.00;98610.25;2568457;28;20058;-89
2023/05/01 01:34:31;;;;;;;29.30;17.35;;;;;;;4.33;100.00;98607.63;2528756;29;20063;-90
2023/05/01 01:35:55;;;;;;;30.55;16.80;;;;;;;4.29;100.00;98606.75;2527763;29;20089;-89
2023/05/01 01:37:18;;;;;;;32.28;17.17;;;;;;;4.12;100.00;98606.78;2528246;29;20089;-89
2023/05/01 01:38:42;;;;;;;29.45;17.83;;;;;;;4.15;100.00;98603.31;2527907;29;20060;-90
2023/05/01 01:40:17;;;;;;;29.05;17.30;;;;;;;4.20;100.00;98599.84;2549961;28;20105;-90
2023/05/01 01:41:35;;;;;;;33.25;17.83;;;;;;;4.21;100.00;98608.50;2569563;28;20099;-90
2023/05/01 01:42:57;;;;;;;30.52;17.67;;;;;;;4.24;100.00;98603.31;2568580;28;20106;-90
2023/05/01 01:44:23;;;;;;;32.13;18.45;;;;;;;4.29;100.00;98603.31;2569621;28;20047;-90
2023/05/01 01:45:40;;;;;;;28.67;16.88;;;;;;;4.10;100.00;98603.28;2568509;28;20059;-89
2023/05/01 01:46:58;;;;;;;31.80;17.75;;;;;;;3.96;100.00;98605.88;2570027;28;20066;-90
2023/05/01 01:48:21;;;;;;;27.35;16.80;;;;;;;4.11;100.00;98597.25;2568631;28;20509;-92
2023/05/01 01:49:43;;;;;;;28.65;16.40;;;;;;;4.33;100.00;98607.63;2569597;28;20054;-89
2023/05/01 01:50:59;;;;;;;30.50;16.50;;;;;;;4.42;100.00;98594.69;2568399;28;20133;-91
2023/05/01 01:52:17;;;;;;;31.30;16.73;;;;;;;4.49;100.00;98593.78;2569255;28;20055;-90
2023/05/01 01:53:36;;;;;;;27.63;16.42;;;;;;;4.41;100.00;98595.53;2568497;28;20069;-90
2023/05/01 01:54:57;;;;;;;29.40;17.05;;;;;;;4.35;100.00;98595.53;2569394;28;20070;-91
2023/05/01 01:56:16;;;;;;;30.20;16.80;;;;;;;4.04;100.00;98591.19;2568308;28;20154;-89
2023/05/01 01:57:35;;;;;;;30.45;16.08;;;;;;;4.06;100.00;98588.63;2569405;28;20161;-90
2023/05/01 01:58:52;;;;;;;27.25;16.83;;;;;;;4.09;100.00;98592.09;2568382;28;20063;-89
2023/05/01 02:00:09;;;;;;;27.05;16.73;;;;;;;3.81;100.00;98589.47;2569297;28;20163;-88
2023/05/01 02:01:27;;;;;;;27.13;16.42;;;;;;;3.93;100.00;98590.34;2568193;28;20054;-90
2023/05/01 02:02:45;;;;;;;26.08;16.25;;;;;;;3.89;100.00;98591.19;2569281;28;20138;-90
2023/05/01 02:04:02;;;;;;;29.70;17.42;;;;;;;3.94;100.00;98584.31;2568567;28;20490;-89
2023/05/01 02:05:20;;;;;;;28.10;16.95;;;;;;;4.06;100.00;98586.03;2569864;28;20054;-90
2023/05/01 02:06:38;;;;;;;30.45;16.40;;;;;;;4.15;100.00;98587.75;2568364;28;20262;-89
2023/05/01 02:07:55;;;;;;;28.30;17.20;;;;;;;4.10;100.00;98582.56;2569296;28;20055;-89
2023/05/01 02:09:11;;;;;;;27.75;17.75;;;;;;;4.15;100.00;98586.03;2568551;28;20058;-90
2023/05/01 02:10:28;;;;;;;29.40;17.20;;;;;;;4.23;100.00;98580.84;2569328;28;20086;-90
2023/05/01 02:11:45;;;;;;;28.52;16.35;;;;;;;4.17;100.00;98581.72;2568392;28;20608;-89
2023/05/01 02:13:02;;;;;;;31.38;17.33;;;;;;;4.00;100.00;98581.69;2569229;28;20101;-90
2023/05/01 02:14:20;;;;;;;29.88;17.77;;;;;;;4.00;100.00;98579.13;2557548;29;20054;-91
2023/05/01 02:15:38;;;;;;;28.75;16.55;;;;;;;4.03;100.00;98586.88;2562477;28;20062;-91
2023/05/01 02:16:55;;;;;;;27.35;16.13;;;;;;;3.91;100.00;98579.97;2567951;28;20058;-90
2023/05/01 02:18:12;;;;;;;26.80;16.25;;;;;;;3.93;100.00;98587.75;2568335;28;20061;-90
2023/05/01 02:19:31;;;;;;;32.60;16.58;;;;;;;3.77;100.00;98582.56;2568848;28;20056;-90
2023/05/01 02:20:47;;;;;;;27.52;15.90;;;;;;;3.57;100.00;98579.03;2568703;28;20553;-90
2023/05/01 02:22:04;;;;;;;33.17;17.98;;;;;;;3.67;100.00;98570.44;2569058;28;20564;-90
2023/05/01 02:23:20;;;;;;;31.73;18.25;;;;;;;3.71;100.00;98574.75;2568300;28;20065;-90
2023/05/01 02:24:39;;;;;;;30.95;17.48;;;;;;;3.80;100.00;98572.19;2569409;28;20058;-90
2023/05/01 02:25:59;;;;;;;32.72;17.83;;;;;;;3.85;100.00;98567.03;2568861;28;20058;-90
2023/05/01 02:27:20;;;;;;;26.77;16.25;;;;;;;3.57;100.00;98563.50;2570160;28;20458;-90
2023/05/01 02:28:40;;;;;;;30.52;16.27;;;;;;;3.69;100.00;98568.72;2569701;28;20059;-90
2023/05/01 02:29:56;;;;;;;27.15;16.02;;;;;;;3.66;100.00;98572.16;2569451;28;20497;-90
2023/05/01 02:31:11;;;;;;;30.73;16.98;;;;;;;3.71;100.00;98572.16;2568084;28;20066;-88
2023/05/01 02:32:27;;;;;;;30.70;17.23;;;;;;;3.77;100.00;98574.78;2568883;28;20097;-89
2023/05/01 02:33:43;;;;;;;33.55;17.02;;;;;;;3.78;100.00;98580.81;2568155;28;20078;-91
2023/05/01 02:34:59;;;;;;;28.75;16.30;;;;;;;3.68;100.00;98572.16;2569150;28;20171;-90
2023/05/01 02:36:14;;;;;;;26.77;15.77;;;;;;;3.79;100.00;98575.66;2567980;28;20055;-90
2023/05/01 02:37:31;;;;;;;27.10;15.63;;;;;;;3.74;100.00;98574.75;2558220;29;20107;-90
2023/05/01 02:38:49;;;;;;;29.08;16.42;;;;;;;3.61;100.00;98566.13;2561740;28;20066;-90
2023/05/01 02:40:06;;;;;;;31.98;16.65;;;;;;;3.56;100.00;98577.31;2568555;28;20520;-90
2023/05/01 02:41:24;;;;;;;26.73;15.90;;;;;;;3.30;100.00;98571.22;2567847;28;20062;-90
2023/05/01 02:42:42;;;;;;;26.75;16.13;;;;;;;3.50;100.00;98571.28;2569038;28;20934;-91
2023/05/01 02:44:03;;;;;;;27.40;15.90;;;;;;;3.28;100.00;98574.66;2567926;28;20059;-90
2023/05/01 02:45:21;;;;;;;29.48;16.30;;;;;;;3.44;100.00;98573.84;2568883;28;20058;-90
2023/05/01 02:46:40;;;;;;;28.75;17.00;;;;;;;3.45;100.00;98566.94;2567689;28;20086;-89
2023/05/01 02:47:58;;;;;;;29.77;16.63;;;;;;;3.50;100.00;98573.00;2569066;28;20055;-90
2023/05/01 02:49:16;;;;;;;29.42;16.60;;;;;;;3.27;100.00;98565.16;2567579;28;20055;-90
2023/05/01 02:50:33;;;;;;;33.50;17.23;;;;;;;3.30;100.00;98572.94;2568944;28;20242;-89
2023/05/01 02:51:49;;;;;;;32.92;16.73;;;;;;;3.04;100.00;98568.50;2567630;28;20061;-91
2023/05/01 02:53:05;;;;;;;32.55;16.30;;;;;;;3.14;100.00;98570.28;2568394;28;20113;-90
2023/05/01 02:54:21;;;;;;;29.45;16.73;;;;;;;3.10;100.00;98563.38;2567884;28;20101;-90
2023/05/01 02:55:38;;;;;;;30.05;16.90;;;;;;;2.92;100.00;98572.75;2568979;28;20521;-91
2023/05/01 02:56:54;;;;;;;29.63;16.60;;;;;;;3.19;100.00;98563.38;2567158;28;20054;-89
2023/05/01 02:58:19;;;;;;;26.23;15.30;;;;;;;3.19;100.00;98565.97;2568710;28;20058;-90
2023/05/01 02:59:34;;;;;;;28.80;15.35;;;;;;;3.23;100.00;98564.28;2567483;28;20577;-90
2023/05/01 03:00:50;;;;;;;26.02;15.32;;;;;;;3.10;100.00;98560.78;2568534;28;20145;-91
2023/05/01 03:02:06;;;;;;;35.38;16.77;;;;;;;3.17;100.00;98557.34;2567942;28;20066;-88
2023/05/01 03:03:21;;;;;;;29.35;15.77;;;;;;;3.12;100.00;98548.72;2568594;28;20498;-90
2023/05/01 03:04:37;;;;;;;28.73;14.85;;;;;;;3.22;100.00;98553.06;2567546;28;20054;-90
2023/05/01 03:05:52;;;;;;;29.20;15.57;;;;;;;3.27;100.00;98549.63;2568652;28;20061;-91
2023/05/01 03:07:08;;;;;;;28.00;14.25;;;;;;;3.38;100.00;98551.38;2567896;28;20058;-90
2023/05/01 03:08:24;;;;;;;23.50;15.23;;;;;;;3.51;100.00;98544.53;2568430;28;20047;-90
2023/05/01 03:09:39;;;;;;;28.10;15.05;;;;;;;3.58;100.00;98550.59;2567600;28;20050;-92
2023/05/01 03:10:55;;;;;;;28.92;15.95;;;;;;;3.61;100.00;98550.59;2568441;28;20058;-91
2023/05/01 03:12:10;;;;;;;29.65;14.80;;;;;;;3.63;100.00;98548.84;2567947;28;20055;-89
2023/05/01 03:13:26;;;;;;;25.20;14.88;;;;;;;3.65;100.00;98544.53;2568316;28;20494;-89
2023/05/01 03:14:42;;;;;;;31.33;16.40;;;;;;;3.64;100.00;98544.56;2567915;28;20086;-89
2023/05/01 03:15:57;;;;;;;25.60;14.77;;;;;;;3.61;100.00;98541.94;2557195;29;20624;-91
2023/05/01 03:17:13;;;;;;;29.23;15.43;;;;;;;3.64;100.00;98535.03;2561862;28;20244;-88
2023/05/01 03:18:29;;;;;;;29.67;16.75;;;;;;;3.62;100.00;98543.66;2567721;28;20063;-90
2023/05/01 03:19:45;;;;;;;29.38;17.00;;;;;;;3.48;100.00;98541.06;2568926;28;20114;-90
2023/05/01 03:21:00;;;;;;;28.67;16.45;;;;;;;3.48;100.00;98541.91;2567333;28;20054;-89
2023/05/01 03:22:16;;;;;;;33.28;18.13;;;;;;;3.59;100.00;98538.47;2568426;28;20521;-89
2023/05/01 03:23:32;;;;;;;30.02;16.27;;;;;;;3.49;100.00;98537.59;2567785;28;20058;-89
2023/05/01 03:24:48;;;;;;;30.33;17.42;;;;;;;3.49;100.00;98543.66;2568931;28;20051;-89
2023/05/01 03:26:04;;;;;;;30.55;18.05;;;;;;;3.56;100.00;98536.75;2567482;28;20568;-89
2023/05/01 03:27:19;;;;;;;24.80;16.10;;;;;;;3.55;100.00;98536.75;2568316;28;20059;-89
2023/05/01 03:28:35;;;;;;;29.92;17.00;;;;;;;3.52;100.00;98541.06;2556008;29;20142;-90
2023/05/01 03:29:51;;;;;;;30.20;17.10;;;;;;;3.48;100.00;98536.72;2562337;28;20055;-90
2023/05/01 03:31:07;;;;;;;30.00;16.35;;;;;;;3.50;100.00;98535.03;2567695;28;20137;-90
2023/05/01 03:32:22;;;;;;;29.63;16.75;;;;;;;3.46;100.00;98535.88;2568610;28;20490;-89
2023/05/01 03:33:39;;;;;;;29.05;16.27;;;;;;;3.24;100.00;98541.00;2567384;28;20055;-91
2023/05/01 03:34:54;;;;;;;32.17;17.05;;;;;;;3.20;100.00;98538.41;2568457;28;20086;-90
2023/05/01 03:36:10;;;;;;;28.17;16.75;;;;;;;3.28;100.00;98543.59;2567453;28;20058;-91
2023/05/01 03:37:26;;;;;;;29.85;16.95;;;;;;;3.24;100.00;98546.19;2568319;28;20565;-90
2023/05/01 03:38:42;;;;;;;30.23;16.83;;;;;;;3.09;100.00;98538.38;2567424;28;20062;-90
2023/05/01 03:39:59;;;;;;;25.65;15.40;;;;;;;3.12;100.00;98533.19;2568782;28;20054;-91
2023/05/01 03:41:14;;;;;;;29.83;16.80;;;;;;;3.23;100.00;98536.69;2567619;28;20117;-89
2023/05/01 03:42:30;;;;;;;26.30;15.00;;;;;;;3.36;100.00;98539.31;2567974;28;20554;-90
2023/05/01 03:43:45;;;;;;;28.02;15.05;;;;;;;3.39;100.00;98539.31;2567614;28;20062;-90
2023/05/01 03:45:01;;;;;;;23.63;14.85;;;;;;;3.29;100.00;98533.25;2568661;28;20055;-91
2023/05/01 03:46:17;;;;;;;25.77;15.32;;;;;;;3.02;100.00;98537.47;2567657;28;20506;-89
2023/05/01 03:47:32;;;;;;;27.85;15.43;;;;;;;3.11;100.00;98529.72;2567867;28;20053;-89
2023/05/01 03:48:48;;;;;;;24.67;15.35;;;;;;;3.19;100.00;98531.50;2568409;28;20054;-90
2023/05/01 03:50:03;;;;;;;28.00;15.18;;;;;;;3.09;100.00;98526.28;2567711;28;20050;-89
2023/05/01 03:51:19;;;;;;;26.85;15.45;;;;;;;3.17;100.00;98531.47;2567987;28;20488;-92
2023/05/01 03:52:35;;;;;;;24.13;14.38;;;;;;;3.23;100.00;98523.75;2567596;28;20121;-90
2023/05/01 03:53:51;;;;;;;26.83;15.13;;;;;;;3.13;100.00;98526.28;2568356;28;20085;-89
2023/05/01 03:55:07;;;;;;;25.83;14.75;;;;;;;3.14;100.00;98520.25;2567570;28;20058;-90
2023/05/01 03:56:26;;;;;;;25.35;15.82;;;;;;;3.14;100.00;98530.59;2568002;28;20122;-90
2023/05/01 03:57:42;;;;;;;26.75;15.80;;;;;;;3.08;100.00;98523.72;2567847;28;20133;-89
2023/05/01 03:58:58;;;;;;;26.50;15.60;;;;;;;3.12;100.00;98535.78;2568485;28;20051;-90
2023/05/01 04:00:14;;;;;;;27.33;15.40;;;;;;;2.99;100.00;98526.25;2567237;28;20070;-90
2023/05/01 04:01:32;;;;;;;28.20;17.00;;;;;;;3.08;100.00;98526.28;2568707;28;20055;-91
2023/05/01 04:02:48;;;;;;;24.77;15.95;;;;;;;3.14;100.00;98530.59;2567533;28;20130;-91
2023/05/01 04:04:03;;;;;;;27.48;15.50;;;;;;;3.28;100.00;98520.31;2568409;28;20054;-90
2023/05/01 04:05:20;;;;;;;29.27;15.25;;;;;;;3.25;100.00;98526.31;2556938;29;20051;-90
2023/05/01 04:06:36;;;;;;;26.40;15.85;;;;;;;3.19;100.00;98528.91;2562492;28;20063;-89
2023/05/01 04:07:51;;;;;;;27.35;16.42;;;;;;;3.20;100.00;98520.28;2567427;28;20055;-90
2023/05/01 04:09:07;;;;;;;28.63;15.88;;;;;;;3.24;100.00;98524.59;2568268;28;20502;-90
2023/05/01 04:10:22;;;;;;;22.95;14.88;;;;;;;3.25;100.00;98526.31;2567605;28;20070;-90
2023/05/01 04:11:38;;;;;;;25.55;15.93;;;;;;;3.13;100.00;98526.28;2568278;28;20137;-90
2023/05/01 04:12:53;;;;;;;23.70;14.40;;;;;;;2.92;100.00;98518.44;2567331;28;20506;-89
2023/05/01 04:14:09;;;;;;;28.67;15.70;;;;;;;2.98;100.00;98517.63;2568313;28;20074;-90
2023/05/01 04:15:24;;;;;;;26.83;15.00;;;;;;;3.08;100.00;98524.56;2567754;28;20059;-90
2023/05/01 04:16:40;;;;;;;26.38;15.02;;;;;;;3.18;100.00;98522.84;2568081;28;20055;-90
2023/05/01 04:17:56;;;;;;;26.27;16.13;;;;;;;3.32;100.00;98522.03;2567446;28;21011;-90
2023/05/01 04:19:12;;;;;;;27.00;15.27;;;;;;;3.14;100.00;98531.47;2568829;28;20054;-91
2023/05/01 04:20:27;;;;;;;29.05;15.68;;;;;;;2.96;100.00;98530.56;2568006;28;20494;-90
2023/05/01 04:21:43;;;;;;;28.25;17.02;;;;;;;2.93;100.00;98530.56;2569280;28;20095;-90
2023/05/01 04:22:58;;;;;;;27.23;16.20;;;;;;;3.01;100.00;98532.28;2568859;28;20522;-90
2023/05/01 04:24:15;;;;;;;31.20;17.52;;;;;;;2.94;100.00;98540.03;2567831;28;20208;-90
2023/05/01 04:25:31;;;;;;;29.70;16.83;;;;;;;3.09;100.00;98536.63;2568245;28;20062;-88
2023/05/01 04:26:46;;;;;;;31.50;16.52;;;;;;;3.33;100.00;98528.94;2569543;28;20502;-89
2023/05/01 04:28:02;;;;;;;31.50;16.70;;;;;;;3.45;100.00;98523.78;2570180;28;20059;-89
2023/05/01 04:29:17;;;;;;;29.50;16.50;;;;;;;3.51;100.00;98534.19;2569274;28;20142;-89
2023/05/01 04:30:33;;;;;;;24.23;15.48;;;;;;;3.59;100.00;98535.91;2558383;29;20507;-89
2023/05/01 04:31:48;;;;;;;24.80;16.15;;;;;;;3.64;100.00;98529.88;2562080;28;20479;-91
2023/05/01 04:33:10;;;;;;;31.75;15.80;;;;;;;3.73;100.00;98534.19;2578961;28;20061;-90
2023/05/01 04:34:28;;;;;;;27.42;15.43;;;;;;;3.72;100.00;98527.28;2573921;28;20557;-88
2023/05/01 04:35:43;;;;;;;28.48;16.25;;;;;;;3.70;100.00;98525.53;2569603;28;20051;-89
2023/05/01 04:37:00;;;;;;;30.90;16.08;;;;;;;3.62;100.00;98531.59;2568474;28;20066;-88
2023/05/01 04:38:16;;;;;;;29.80;16.65;;;;;;;3.80;100.00;98533.34;2568768;28;20469;-89
2023/05/01 04:39:31;;;;;;;28.05;15.90;;;;;;;3.87;100.00;98534.22;2569248;28;20102;-89
2023/05/01 04:40:47;;;;;;;28.98;15.75;;;;;;;3.95;100.00;98535.06;2571498;28;20055;-90
2023/05/01 04:42:03;;;;;;;26.60;14.95;;;;;;;3.96;100.00;98539.38;2570882;28;20062;-89
2023/05/01 04:43:19;;;;;;;30.17;15.82;;;;;;;3.96;100.00;98536.78;2571716;28;20059;-89
2023/05/01 04:44:36;;;;;;;30.98;16.25;;;;;;;3.96;100.00;98535.94;2571270;28;20364;-89
2023/05/01 04:45:52;;;;;;;24.73;14.70;;;;;;;3.87;100.00;98542.00;2571189;28;20050;-89
2023/05/01 04:47:08;;;;;;;23.50;15.05;;;;;;;3.90;100.00;98541.09;2571352;28;20065;-89
2023/05/01 04:48:23;;;;;;;29.23;15.88;;;;;;;4.01;100.00;98539.38;2571308;28;20065;-89
2023/05/01 04:49:39;;;;;;;23.95;15.07;;;;;;;3.99;100.00;98538.53;2569505;28;20082;-90
2023/05/01 04:50:55;;;;;;;26.75;15.25;;;;;;;3.95;100.00;98542.84;2570321;28;20066;-89
2023/05/01 04:52:11;;;;;;;24.80;15.05;;;;;;;3.88;100.00;98542.84;2570115;28;20050;-91
2023/05/01 04:53:27;;;;;;;24.92;14.45;;;;;;;3.96;100.00;98546.31;2570310;28;20055;-90
2023/05/01 04:54:42;;;;;;;26.23;14.20;;;;;;;4.05;100.00;98548.03;2572003;28;20078;-90
2023/05/01 04:55:58;;;;;;;24.42;14.48;;;;;;;4.00;100.00;98548.03;2582551;28;20054;-89
2023/05/01 04:57:14;;;;;;;26.00;14.27;;;;;;;3.98;100.00;98546.28;2578154;28;20615;-90
2023/05/01 04:58:29;;;;;;;24.98;14.55;;;;;;;3.99;100.00;98545.47;2573157;28;20109;-89
2023/05/01 04:59:46;;;;;;;27.73;14.63;;;;;;;3.92;100.00;98545.44;2572742;28;20524;-89
2023/05/01 05:01:02;;;;;;;23.88;13.93;;;;;;;4.04;100.00;98543.72;2572806;28;20118;-90
2023/05/01 05:02:17;;;;;;;23.67;13.48;;;;;;;4.16;100.00;98542.84;2572982;28;20058;-89
2023/05/01 05:03:33;;;;;;;25.25;14.70;;;;;;;4.22;100.00;98535.06;2572743;28;20058;-89
2023/05/01 05:04:49;;;;;;;25.48;15.15;;;;;;;4.16;100.00;98538.53;2572942;28;20601;-90
2023/05/01 05:06:04;;;;;;;27.92;14.35;;;;;;;4.11;100.00;98542.84;2571139;28;20059;-90
2023/05/01 05:07:20;;;;;;;26.30;14.93;;;;;;;4.15;100.00;98542.00;2571638;28;20428;-90
2023/05/01 05:08:36;;;;;;;24.27;14.45;;;;;;;4.23;100.00;98537.66;2571407;28;20059;-89
2023/05/01 05:09:51;;;;;;;26.65;14.50;;;;;;;4.44;100.00;98540.22;2571822;28;20484;-90
2023/05/01 05:11:07;;;;;;;24.92;14.55;;;;;;;4.49;100.00;98541.94;2570764;28;20550;-89
2023/05/01 05:12:23;;;;;;;25.60;15.27;;;;;;;4.33;100.00;98545.44;2571218;28;20062;-90
2023/05/01 05:13:38;;;;;;;21.85;13.18;;;;;;;4.41;100.00;98541.09;2570832;28;20051;-90
2023/05/01 05:14:54;;;;;;;28.70;14.23;;;;;;;4.35;100.00;98536.78;2571895;28;20077;-91
2023/05/01 05:16:09;;;;;;;25.25;13.77;;;;;;;4.38;100.00;98535.91;2570959;28;20058;-89
2023/05/01 05:17:25;;;;;;;25.75;14.65;;;;;;;4.34;100.00;98537.66;2571531;28;20054;-90
2023/05/01 05:18:41;;;;;;;25.98;14.02;;;;;;;4.22;100.00;98543.69;2570923;28;20066;-90
2023/05/01 05:19:56;;;;;;;24.80;14.50;;;;;;;4.28;100.00;98536.81;2571884;28;20059;-88
2023/05/01 05:21:12;;;;;;;23.70;14.70;;;;;;;4.33;100.00;98538.53;2570697;28;20058;-90
2023/05/01 05:22:27;;;;;;;24.67;13.95;;;;;;;4.31;100.00;98536.78;2571612;28;20043;-90
2023/05/01 05:23:43;;;;;;;25.42;13.20;;;;;;;4.37;100.00;98536.78;2570191;28;20126;-90
2023/05/01 05:25:02;;;;;;;24.77;13.57;;;;;;;4.73;100.00;98539.28;2571611;28;20050;-90
2023/05/01 05:26:18;;;;;;;21.58;13.70;;;;;;;4.87;100.00;98532.31;2570617;28;20102;-91
2023/05/01 05:27:36;;;;;;;24.58;13.88;;;;;;;4.74;100.00;98535.81;2571288;28;20614;-92
2023/05/01 05:28:52;;;;;;;29.55;14.73;;;;;;;4.74;100.00;98528.03;2570690;28;20460;-92
2023/05/01 05:30:09;;;;;;;23.42;13.80;;;;;;;4.64;100.00;98530.69;2571828;28;20054;-90
2023/05/01 05:31:24;;;;;;;23.90;13.70;;;;;;;4.59;100.00;98540.19;2570896;28;20506;-90
2023/05/01 05:32:40;;;;;;;26.05;13.60;;;;;;;4.83;100.00;98533.22;2580312;28;20058;-90
2023/05/01 05:33:55;;;;;;;27.88;13.95;;;;;;;4.88;100.00;98528.84;2576430;28;20054;-90
2023/05/01 05:35:11;;;;;;;22.88;14.68;;;;;;;4.91;100.00;98528.00;2570203;28;20065;-90
2023/05/01 05:36:27;;;;;;;23.80;14.68;;;;;;;5.11;100.00;98534.84;2570546;28;20055;-91
2023/05/01 05:37:43;;;;;;;25.92;14.73;;;;;;;5.15;100.00;98529.63;2570092;28;20055;-92
2023/05/01 05:38:58;;;;;;;23.33;14.23;;;;;;;4.99;100.00;98530.56;2570964;28;20422;-89
2023/05/01 05:40:14;;;;;;;25.58;15.00;;;;;;;5.18;100.00;98532.22;2570178;28;20086;-90
2023/05/01 05:41:30;;;;;;;25.02;15.05;;;;;;;5.05;100.00;98527.97;2570683;28;20170;-90
2023/05/01 05:42:45;;;;;;;28.80;15.20;;;;;;;5.35;100.00;98524.31;2570417;28;20068;-90
2023/05/01 05:44:01;;;;;;;23.70;14.70;;;;;;;5.43;100.00;98529.47;2570940;28;20086;-90
2023/05/01 05:45:18;;;;;;;26.52;15.15;;;;;;;5.48;100.00;98522.53;2569715;28;20055;-90
2023/05/01 05:46:36;;;;;;;26.33;15.60;;;;;;;5.56;100.00;98522.50;2559924;29;20047;-90
2023/05/01 05:47:52;;;;;;;26.95;15.88;;;;;;;5.56;100.00;98527.69;2564071;28;20055;-90
2023/05/01 05:49:08;;;;;;;28.17;15.80;;;;;;;5.91;100.00;98523.13;2579991;28;20065;-90
2023/05/01 05:50:23;;;;;;;28.67;15.40;;;;;;;5.73;100.00;98519.78;2575659;28;20051;-90
2023/05/01 05:51:39;;;;;;;26.35;15.52;;;;;;;5.73;100.00;98519.78;2569979;28;20061;-90
2023/05/01 05:52:55;;;;;;;27.08;15.88;;;;;;;6.01;100.00;98519.59;2569537;28;20120;-90
2023/05/01 05:54:10;;;;;;;26.23;15.98;;;;;;;6.03;100.00;98519.56;2570057;28;20074;-90
2023/05/01 05:55:26;;;;;;;26.20;15.07;;;;;;;6.00;100.00;98523.03;2569518;28;20061;-90
2023/05/01 05:56:42;;;;;;;24.92;14.60;;;;;;;6.13;100.00;98515.16;2569843;28;20046;-91